Time;durP1;ratioP1;P1;durP2;ratioP2;P2;SDS_P1;SDS_P2;PMS_P1;PMS_P2;Temp;Humidity;BMP_temperature;BMP_pressure;BME280_temperature;BME280_humidity;BME280_pressure;Samples;Min_cycle;Max_cycle;Signal;HPM_P1;HPM_P2
2022/09/04 00:01:00;;;;;;;3.80;1.67;;;17.50;59.20;;;;;;4923725;29;20459;-70
2022/09/04 00:03:39;;;;;;;2.22;1.30;;;17.50;58.60;;;;;;4927446;29;20024;-70
2022/09/04 00:06:13;;;;;;;3.92;1.30;;;17.50;60.50;;;;;;4921437;29;20032;-70
2022/09/04 00:09:06;;;;;;;4.05;1.52;;;17.50;59.70;;;;;;4921653;29;20032;-70
2022/09/04 00:11:40;;;;;;;4.15;1.67;;;17.50;59.10;;;;;;4921022;29;20055;-70
2022/09/04 00:14:42;;;;;;;5.57;1.60;;;17.50;59.10;;;;;;4917531;29;20604;-71
2022/09/04 00:17:29;;;;;;;2.05;1.33;;;17.40;59.90;;;;;;4923942;29;20044;-70
2022/09/04 00:20:04;;;;;;;3.15;1.60;;;17.40;59.90;;;;;;4922944;29;20035;-70
2022/09/04 00:22:53;;;;;;;1.83;1.27;;;17.30;60.60;;;;;;4920138;29;20028;-71
2022/09/04 00:25:25;;;;;;;3.40;1.67;;;17.40;60.10;;;;;;4921626;29;20066;-70
2022/09/04 00:28:01;;;;;;;4.15;1.42;;;17.30;60.20;;;;;;4920220;29;20074;-70
2022/09/04 00:30:27;;;;;;;2.20;1.52;;;17.30;59.40;;;;;;4920954;29;20046;-70
2022/09/04 00:33:04;;;;;;;3.83;1.83;;;17.20;60.10;;;;;;4918833;29;20036;-70
2022/09/04 00:35:35;;;;;;;4.43;1.60;;;17.20;60.80;;;;;;4926373;28;20028;-70
2022/09/04 00:38:24;;;;;;;2.55;1.48;;;17.20;60.30;;;;;;4924163;28;20050;-71
2022/09/04 00:41:17;;;;;;;7.10;1.40;;;17.20;59.30;;;;;;4914307;29;20040;-70
2022/09/04 00:44:14;;;;;;;7.53;1.73;;;17.10;59.20;;;;;;4922533;29;20773;-70
2022/09/04 00:47:08;;;;;;;2.30;1.45;;;17.20;59.50;;;;;;4921347;29;20060;-70
2022/09/04 00:49:41;;;;;;;2.53;1.27;;;17.20;60.00;;;;;;4920731;29;20835;-70
2022/09/04 00:52:46;;;;;;;2.15;1.30;;;17.20;61.20;;;;;;4923967;29;20774;-70
2022/09/04 00:55:39;;;;;;;5.10;1.90;;;17.10;60.90;;;;;;4924561;29;20534;-71
2022/09/04 00:58:24;;;;;;;1.63;1.02;;;17.10;60.80;;;;;;4922978;29;20515;-70
2022/09/04 01:00:54;;;;;;;1.75;1.10;;;17.10;61.20;;;;;;4922179;29;20078;-70
2022/09/04 01:04:01;;;;;;;1.63;1.10;;;17.10;60.50;;;;;;4923686;29;20046;-70
2022/09/04 01:06:48;;;;;;;2.25;1.25;;;17.10;60.50;;;;;;4898904;29;20040;-69
2022/09/04 01:09:43;;;;;;;2.70;1.23;;;17.00;60.40;;;;;;4918295;29;20024;-70
2022/09/04 01:12:36;;;;;;;3.08;1.27;;;17.00;59.90;;;;;;4924248;29;20042;-70
2022/09/04 01:15:13;;;;;;;2.42;1.30;;;17.00;60.20;;;;;;4922591;29;20036;-70
2022/09/04 01:18:12;;;;;;;2.42;1.15;;;17.00;61.00;;;;;;4923982;29;20108;-70
2022/09/04 01:20:49;;;;;;;5.57;0.98;;;16.90;61.10;;;;;;4922965;29;20115;-70
2022/09/04 01:23:40;;;;;;;3.95;1.40;;;17.00;61.50;;;;;;4920620;29;20042;-73
2022/09/04 01:26:26;;;;;;;1.95;1.20;;;16.90;61.10;;;;;;4917593;29;20031;-70
2022/09/04 01:28:52;;;;;;;;;;;16.90;61.00;;;;;;4916421;29;20046;-70
2022/09/04 01:31:45;;;;;;;5.82;1.38;;;16.80;61.90;;;;;;4925493;29;19919;-70
2022/09/04 01:34:31;;;;;;;2.85;1.35;;;16.80;61.70;;;;;;4923109;29;20051;-70
2022/09/04 01:37:20;;;;;;;4.05;1.23;;;16.70;61.40;;;;;;4935962;29;20071;-70
2022/09/04 01:39:59;;;;;;;3.00;1.33;;;16.80;62.10;;;;;;4905010;29;20194;-69
2022/09/04 01:42:46;;;;;;;1.77;1.40;;;16.80;61.90;;;;;;4921588;29;20040;-70
2022/09/04 01:45:18;;;;;;;2.13;1.10;;;16.80;62.60;;;;;;4917567;29;20119;-70
2022/09/04 01:47:54;;;;;;;3.58;1.48;;;16.80;62.60;;;;;;4917530;29;20122;-70
2022/09/04 01:50:25;;;;;;;2.38;1.50;;;16.80;62.70;;;;;;4924876;29;20952;-70
2022/09/04 01:53:15;;;;;;;2.30;1.27;;;16.80;63.00;;;;;;4922012;29;20055;-70
2022/09/04 01:56:07;;;;;;;2.85;1.45;;;16.80;62.60;;;;;;4922755;29;20146;-70
2022/09/04 01:58:43;;;;;;;2.53;1.27;;;16.80;63.20;;;;;;4921657;29;20070;-70
2022/09/04 02:01:15;;;;;;;1.45;1.20;;;16.70;63.00;;;;;;4918639;29;20043;-71
2022/09/04 02:04:06;;;;;;;2.55;1.10;;;16.70;62.50;;;;;;4921514;29;20047;-71
2022/09/04 02:06:49;;;;;;;1.80;1.10;;;16.70;63.10;;;;;;4914365;29;20043;-70
2022/09/04 02:09:24;;;;;;;2.92;1.60;;;16.70;62.50;;;;;;4924490;29;20050;-70
2022/09/04 02:12:03;;;;;;;3.47;1.35;;;16.60;62.10;;;;;;4924073;29;20027;-69
2022/09/04 02:14:53;;;;;;;4.70;1.38;;;16.60;63.10;;;;;;4920753;29;20079;-70
2022/09/04 02:17:50;;;;;;;4.25;1.40;;;16.70;62.30;;;;;;4920953;29;20036;-70
2022/09/04 02:20:25;;;;;;;2.58;1.27;;;16.60;62.80;;;;;;4912945;29;20040;-69
2022/09/04 02:23:01;;;;;;;3.85;1.20;;;16.60;63.20;;;;;;4917514;29;20047;-70
2022/09/04 02:25:30;;;;;;;2.78;1.30;;;16.60;64.10;;;;;;4917033;29;20369;-70
2022/09/04 02:28:14;;;;;;;2.08;1.17;;;16.60;63.10;;;;;;4920566;29;20078;-70
2022/09/04 02:30:58;;;;;;;3.78;1.25;;;16.60;63.20;;;;;;4917963;29;20090;-70
2022/09/04 02:33:39;;;;;;;1.80;1.25;;;16.60;63.90;;;;;;4921948;29;20548;-70
2022/09/04 02:36:20;;;;;;;3.13;1.20;;;16.50;63.60;;;;;;4919126;29;20126;-70
2022/09/04 02:39:05;;;;;;;2.97;1.20;;;16.50;63.40;;;;;;4918577;29;20525;-70
2022/09/04 02:41:40;;;;;;;2.33;1.42;;;16.50;63.80;;;;;;4916401;29;20130;-70
2022/09/04 02:44:40;;;;;;;3.35;1.17;;;16.50;63.60;;;;;;4914609;29;20031;-70
2022/09/04 02:47:05;;;;;;;3.33;1.30;;;16.40;63.60;;;;;;4936376;29;20150;-70
2022/09/04 02:49:40;;;;;;;3.05;1.20;;;16.40;64.30;;;;;;4923279;29;20347;-70
2022/09/04 02:52:41;;;;;;;4.25;1.20;;;16.40;64.30;;;;;;4920278;29;20039;-70
2022/09/04 02:55:44;;;;;;;3.92;1.00;;;16.40;63.30;;;;;;4919266;29;20146;-70
2022/09/04 02:58:29;;;;;;;2.17;1.45;;;16.40;64.10;;;;;;4916931;29;20028;-70
2022/09/04 03:01:21;;;;;;;2.60;1.20;;;16.40;64.10;;;;;;4914448;29;20043;-70
2022/09/04 03:03:59;;;;;;;1.77;1.13;;;16.40;64.30;;;;;;4921686;29;20082;-70
2022/09/04 03:06:41;;;;;;;3.30;1.48;;;16.40;64.30;;;;;;4923653;29;20039;-70
2022/09/04 03:09:36;;;;;;;2.38;1.20;;;16.40;64.40;;;;;;4921296;29;20032;-70
2022/09/04 03:12:35;;;;;;;1.65;1.08;;;16.40;64.40;;;;;;4919957;29;20044;-70
2022/09/04 03:15:39;;;;;;;3.63;1.35;;;16.30;64.60;;;;;;4919415;29;20032;-70
2022/09/04 03:18:26;;;;;;;2.40;1.02;;;16.40;64.70;;;;;;4916355;29;20036;-70
2022/09/04 03:21:11;;;;;;;2.33;1.08;;;16.30;64.20;;;;;;4920091;29;20044;-70
2022/09/04 03:23:54;;;;;;;2.42;1.20;;;16.30;63.90;;;;;;4926159;29;20036;-70
2022/09/04 03:26:25;;;;;;;2.08;1.10;;;16.30;64.10;;;;;;4926567;29;20035;-70
2022/09/04 03:29:08;;;;;;;2.65;1.13;;;16.30;65.00;;;;;;4923988;29;20493;-70
2022/09/04 03:31:34;;;;;;;2.05;1.02;;;16.30;63.90;;;;;;4924004;29;20032;-70
2022/09/04 03:34:28;;;;;;;2.20;1.02;;;16.30;63.90;;;;;;4921704;29;20043;-70
2022/09/04 03:37:15;;;;;;;2.85;1.30;;;16.20;64.30;;;;;;4922055;29;20106;-71
2022/09/04 03:39:54;;;;;;;2.80;1.20;;;16.20;65.40;;;;;;4921692;29;20043;-69
2022/09/04 03:42:37;;;;;;;3.20;1.15;;;16.10;65.70;;;;;;4923621;29;20038;-70
2022/09/04 03:45:15;;;;;;;3.45;1.10;;;16.20;65.10;;;;;;4924230;29;20032;-70
2022/09/04 03:47:57;;;;;;;3.80;1.10;;;16.10;65.80;;;;;;4925938;29;20050;-70
2022/09/04 03:50:30;;;;;;;3.53;1.35;;;16.10;65.30;;;;;;4924569;29;20061;-70
2022/09/04 03:53:08;;;;;;;1.63;1.15;;;16.10;65.50;;;;;;4920837;29;20047;-70
2022/09/04 03:56:11;;;;;;;2.03;0.80;;;16.00;65.80;;;;;;4921405;29;20102;-70
2022/09/04 03:58:40;;;;;;;3.83;1.33;;;16.00;66.00;;;;;;4921232;29;20032;-70
2022/09/04 04:01:19;;;;;;;1.60;1.10;;;15.90;66.50;;;;;;4921838;29;20171;-70
2022/09/04 04:04:06;;;;;;;2.90;1.02;;;16.00;66.40;;;;;;4927528;29;20059;-70
2022/09/04 04:06:50;;;;;;;2.35;1.00;;;16.00;66.60;;;;;;4923583;29;20511;-70
2022/09/04 04:09:34;;;;;;;3.78;1.20;;;15.90;66.60;;;;;;4926738;29;20039;-70
2022/09/04 04:12:38;;;;;;;3.10;1.40;;;15.90;66.30;;;;;;4923537;29;20079;-70
2022/09/04 04:15:43;;;;;;;1.63;1.20;;;15.90;67.00;;;;;;4912270;29;20040;-70
2022/09/04 04:18:17;;;;;;;3.00;1.27;;;16.00;66.30;;;;;;4918624;29;20028;-70
2022/09/04 04:21:00;;;;;;;6.50;1.38;;;16.10;66.10;;;;;;4924078;29;20037;-70
2022/09/04 04:23:55;;;;;;;2.28;1.60;;;16.20;66.80;;;;;;4926405;29;20032;-70
2022/09/04 04:26:59;;;;;;;1.77;1.40;;;16.10;66.20;;;;;;4924418;29;20032;-70
2022/09/04 04:29:54;;;;;;;2.55;1.02;;;16.10;66.60;;;;;;4923893;29;20042;-71
2022/09/04 04:32:29;;;;;;;1.83;1.10;;;16.10;66.20;;;;;;4921257;29;20161;-71
2022/09/04 04:35:16;;;;;;;2.13;1.20;;;16.10;65.80;;;;;;4918906;29;20039;-70
2022/09/04 04:38:03;;;;;;;2.88;1.20;;;16.20;65.60;;;;;;4920563;29;20031;-70
2022/09/04 04:40:37;;;;;;;1.85;1.25;;;16.30;65.00;;;;;;4923643;29;20075;-70
2022/09/04 04:43:17;;;;;;;1.95;1.25;;;16.20;64.00;;;;;;4926286;29;20102;-70
2022/09/04 04:45:58;;;;;;;2.67;1.30;;;16.30;64.20;;;;;;4925880;29;20039;-71
2022/09/04 04:48:35;;;;;;;3.95;1.42;;;16.30;65.50;;;;;;4923176;29;20046;-71
2022/09/04 04:51:40;;;;;;;2.22;1.27;;;16.30;63.50;;;;;;4919898;29;20066;-70
2022/09/04 04:54:30;;;;;;;2.78;1.10;;;16.30;64.20;;;;;;4923468;29;20050;-70
2022/09/04 04:57:11;;;;;;;1.67;1.05;;;16.30;64.70;;;;;;4920087;29;20035;-70
2022/09/04 04:59:54;;;;;;;2.17;1.33;;;16.30;63.60;;;;;;4921418;29;20179;-69
2022/09/04 05:02:34;;;;;;;1.52;0.85;;;16.30;63.50;;;;;;4924547;29;20035;-70
2022/09/04 05:05:12;;;;;;;1.15;0.98;;;16.30;63.90;;;;;;4924045;29;20063;-70
2022/09/04 05:08:16;;;;;;;4.32;1.23;;;16.30;63.80;;;;;;4923668;29;20042;-70
2022/09/04 05:10:47;;;;;;;2.25;0.90;;;16.30;63.90;;;;;;4911298;29;20052;-70
2022/09/04 05:13:35;;;;;;;1.02;0.90;;;16.40;64.80;;;;;;4918950;29;20071;-70
2022/09/04 05:16:46;;;;;;;1.60;0.85;;;16.40;63.30;;;;;;4919722;29;20067;-70
2022/09/04 05:19:37;;;;;;;2.05;1.40;;;16.50;63.60;;;;;;4914876;29;20186;-70
2022/09/04 05:22:21;;;;;;;5.07;1.00;;;16.50;64.40;;;;;;4922249;29;20197;-70
2022/09/04 05:25:06;;;;;;;3.70;1.00;;;16.60;63.40;;;;;;4920939;29;20035;-70
2022/09/04 05:27:42;;;;;;;1.00;0.80;;;16.50;62.80;;;;;;4921987;28;20488;-70
2022/09/04 05:30:10;;;;;;;2.40;1.20;;;16.60;63.60;;;;;;4918189;29;20035;-70
2022/09/04 05:32:45;;;;;;;3.30;1.10;;;16.70;64.20;;;;;;4919528;29;20126;-70
2022/09/04 05:35:36;;;;;;;4.13;1.05;;;16.70;64.00;;;;;;4920083;29;20074;-70
2022/09/04 05:38:09;;;;;;;2.22;1.25;;;16.80;64.80;;;;;;4922940;29;20031;-70
2022/09/04 05:40:53;;;;;;;2.30;1.17;;;16.80;64.60;;;;;;4924385;29;20035;-70
2022/09/04 05:43:28;;;;;;;4.15;1.20;;;16.80;63.40;;;;;;4921590;29;20036;-70
2022/09/04 05:46:05;;;;;;;5.00;1.23;;;16.80;62.80;;;;;;4920875;29;20041;-70
2022/09/04 05:48:42;;;;;;;1.95;1.00;;;16.80;62.30;;;;;;4920649;29;20039;-70
2022/09/04 05:51:32;;;;;;;2.58;0.98;;;16.80;63.00;;;;;;4917381;29;20115;-70
2022/09/04 05:54:19;;;;;;;1.63;1.17;;;16.80;63.20;;;;;;4919114;29;20036;-70
2022/09/04 05:57:08;;;;;;;2.38;1.00;;;16.80;63.70;;;;;;4920372;29;20036;-70
2022/09/04 05:59:50;;;;;;;2.35;1.23;;;16.80;64.00;;;;;;4913971;29;20130;-70
2022/09/04 06:02:21;;;;;;;5.07;1.65;;;16.80;64.90;;;;;;4921162;29;20456;-70
2022/09/04 06:05:06;;;;;;;2.03;1.17;;;16.80;63.80;;;;;;4922432;29;20039;-70
2022/09/04 06:07:52;;;;;;;3.22;1.17;;;16.80;62.90;;;;;;4918579;29;20035;-70
2022/09/04 06:10:51;;;;;;;2.97;1.20;;;16.80;63.00;;;;;;4918243;29;20051;-70
2022/09/04 06:13:42;;;;;;;1.92;1.00;;;16.90;63.10;;;;;;4920469;29;20035;-70
2022/09/04 06:16:22;;;;;;;2.00;0.90;;;17.00;63.40;;;;;;4922085;29;20042;-70
2022/09/04 06:19:09;;;;;;;2.05;1.30;;;17.10;63.30;;;;;;4921215;29;20020;-70
2022/09/04 06:21:47;;;;;;;4.35;2.00;;;17.10;63.50;;;;;;4922403;28;20027;-70
2022/09/04 06:24:21;;;;;;;4.47;2.20;;;17.20;63.90;;;;;;4919763;29;20119;-70
2022/09/04 06:27:25;;;;;;;4.13;2.05;;;17.30;63.30;;;;;;4918996;29;20027;-71
2022/09/04 06:29:51;;;;;;;4.35;1.80;;;17.30;64.40;;;;;;4918601;29;20115;-72
2022/09/04 06:32:45;;;;;;;1.58;1.30;;;17.40;64.10;;;;;;4920515;29;20451;-71
2022/09/04 06:35:17;;;;;;;2.25;1.05;;;17.40;63.20;;;;;;4922448;29;20042;-71
2022/09/04 06:38:11;;;;;;;2.58;1.38;;;17.50;63.30;;;;;;4923278;29;20035;-71
2022/09/04 06:41:07;;;;;;;1.95;1.08;;;17.60;63.40;;;;;;4921159;29;20038;-71
2022/09/04 06:43:58;;;;;;;2.42;1.38;;;17.70;62.70;;;;;;4915108;29;20415;-70
2022/09/04 06:46:39;;;;;;;4.45;1.50;;;17.70;63.00;;;;;;4918186;29;20042;-70
2022/09/04 06:49:34;;;;;;;3.65;1.50;;;17.80;62.80;;;;;;4914923;29;20151;-71
2022/09/04 06:52:24;;;;;;;2.78;1.40;;;17.90;63.40;;;;;;4921044;29;20043;-71
2022/09/04 06:55:03;;;;;;;4.50;1.60;;;17.90;62.80;;;;;;4919961;29;20043;-70
2022/09/04 06:58:06;;;;;;;2.15;1.25;;;17.90;62.90;;;;;;4922444;29;20083;-70
2022/09/04 07:00:45;;;;;;;2.78;1.30;;;17.90;63.70;;;;;;4919351;29;20727;-71
2022/09/04 07:03:10;;;;;;;2.45;1.77;;;17.90;63.90;;;;;;4921599;29;20035;-70
2022/09/04 07:05:57;;;;;;;1.63;1.35;;;18.00;63.70;;;;;;4918329;29;20039;-70
2022/09/04 07:08:53;;;;;;;3.42;1.60;;;18.00;64.00;;;;;;4917215;29;20848;-71
2022/09/04 07:11:36;;;;;;;1.77;1.33;;;18.30;63.90;;;;;;4923470;29;20091;-71
2022/09/04 07:14:28;;;;;;;2.28;1.50;;;18.70;61.70;;;;;;4920530;29;20043;-71
2022/09/04 07:17:28;;;;;;;2.92;1.45;;;19.10;60.40;;;;;;4919640;29;20102;-70
2022/09/04 07:20:09;;;;;;;2.95;1.80;;;19.30;59.60;;;;;;4919019;29;20059;-70
2022/09/04 07:22:53;;;;;;;3.40;1.55;;;19.30;59.90;;;;;;4918973;29;20377;-70
2022/09/04 07:25:45;;;;;;;2.05;1.80;;;19.20;60.20;;;;;;4920900;29;20549;-70
2022/09/04 07:28:30;;;;;;;2.53;1.63;;;19.20;61.00;;;;;;4931607;29;20036;-70
2022/09/04 07:31:02;;;;;;;3.90;1.65;;;19.30;61.50;;;;;;4920455;29;20821;-70
2022/09/04 07:33:31;;;;;;;3.55;1.95;;;19.40;60.70;;;;;;4922548;29;20031;-69
2022/09/04 07:36:25;;;;;;;2.67;1.83;;;19.50;61.00;;;;;;4921507;29;20031;-69
2022/09/04 07:39:34;;;;;;;4.40;1.70;;;19.60;60.90;;;;;;4918782;29;20073;-70
2022/09/04 07:42:26;;;;;;;5.43;1.90;;;19.70;60.40;;;;;;4917229;29;20040;-70
2022/09/04 07:44:58;;;;;;;3.55;1.70;;;19.80;60.80;;;;;;4917140;29;20267;-70
2022/09/04 07:47:42;;;;;;;2.58;1.90;;;20.00;59.70;;;;;;4920477;29;20040;-71
2022/09/04 07:50:39;;;;;;;3.33;2.08;;;20.00;60.00;;;;;;4921429;29;20059;-68
2022/09/04 07:53:13;;;;;;;;;;;20.10;59.70;;;;;;4920222;29;20051;-71
2022/09/04 07:55:47;;;;;;;3.97;2.10;;;20.10;59.50;;;;;;4920728;29;20572;-70
2022/09/04 07:58:58;;;;;;;2.83;1.83;;;20.20;60.10;;;;;;4917931;29;20075;-70
2022/09/04 08:01:52;;;;;;;2.97;1.88;;;20.20;59.50;;;;;;4906192;29;20082;-70
2022/09/04 08:04:46;;;;;;;3.45;2.08;;;20.10;59.10;;;;;;4917844;29;20044;-70
2022/09/04 08:07:20;;;;;;;6.22;2.13;;;20.10;59.70;;;;;;4924460;29;20071;-70
2022/09/04 08:10:07;;;;;;;5.25;1.95;;;20.20;60.20;;;;;;4926306;29;20039;-70
2022/09/04 08:12:54;;;;;;;3.70;1.95;;;20.40;59.20;;;;;;4919684;29;20031;-70
2022/09/04 08:15:35;;;;;;;3.70;2.00;;;20.50;60.40;;;;;;4923110;29;20412;-70
2022/09/04 08:18:23;;;;;;;3.78;1.90;;;20.60;60.00;;;;;;4920656;29;20040;-70
2022/09/04 08:21:25;;;;;;;4.20;1.88;;;20.80;58.70;;;;;;4921205;29;20123;-70
2022/09/04 08:24:06;;;;;;;3.35;1.90;;;20.80;59.70;;;;;;4916517;29;20544;-70
2022/09/04 08:27:26;;;;;;;4.03;1.85;;;21.00;59.90;;;;;;4923566;29;20040;-70
2022/09/04 08:30:05;;;;;;;2.20;1.92;;;21.00;58.40;;;;;;4923656;29;20507;-69
2022/09/04 08:32:59;;;;;;;3.03;2.03;;;21.10;58.90;;;;;;4919692;29;20040;-69
2022/09/04 08:35:45;;;;;;;2.92;1.85;;;21.10;58.60;;;;;;4919948;29;20139;-70
2022/09/04 08:38:30;;;;;;;2.53;2.00;;;21.10;59.50;;;;;;4919967;29;20035;-70
2022/09/04 08:41:08;;;;;;;5.70;2.00;;;21.10;59.10;;;;;;4918179;29;20047;-69
2022/09/04 08:44:08;;;;;;;3.72;1.98;;;21.20;59.60;;;;;;4920460;29;20373;-71
2022/09/04 08:46:53;;;;;;;3.20;1.95;;;21.20;57.90;;;;;;4920251;29;20160;-70
2022/09/04 08:49:34;;;;;;;4.20;2.25;;;21.30;58.80;;;;;;4924351;29;20412;-70
2022/09/04 08:52:21;;;;;;;2.95;2.03;;;21.20;57.20;;;;;;4922010;29;20034;-71
2022/09/04 08:54:57;;;;;;;3.58;2.00;;;21.20;58.20;;;;;;4921938;29;20031;-72
2022/09/04 08:58:07;;;;;;;3.75;2.20;;;21.10;57.70;;;;;;4924962;29;20031;-70
2022/09/04 09:00:33;;;;;;;2.45;1.90;;;21.20;58.50;;;;;;4923325;29;20836;-70
2022/09/04 09:03:01;;;;;;;2.95;1.90;;;21.10;58.70;;;;;;4918830;29;20040;-71
2022/09/04 09:05:54;;;;;;;2.17;1.98;;;21.20;58.00;;;;;;4923190;29;20082;-70
2022/09/04 09:08:57;;;;;;;2.67;1.90;;;21.30;59.90;;;;;;4923953;29;20130;-70
2022/09/04 09:11:35;;;;;;;6.47;1.83;;;21.40;59.00;;;;;;4923080;29;20484;-70
2022/09/04 09:14:39;;;;;;;4.60;1.83;;;21.40;58.50;;;;;;4922250;29;20140;-70
2022/09/04 09:17:15;;;;;;;3.47;2.28;;;21.50;58.50;;;;;;4916943;29;20050;-70
2022/09/04 09:19:57;;;;;;;5.25;1.95;;;21.60;57.90;;;;;;4919276;29;20036;-70
2022/09/04 09:22:36;;;;;;;2.42;2.10;;;21.70;57.80;;;;;;4926241;29;20078;-71
2022/09/04 09:25:19;;;;;;;2.17;1.98;;;21.70;57.10;;;;;;4922205;29;20043;-70
2022/09/04 09:28:06;;;;;;;2.53;2.00;;;21.70;57.00;;;;;;4924292;28;20074;-71
2022/09/04 09:30:53;;;;;;;3.45;1.90;;;21.70;57.40;;;;;;4921867;29;20069;-71
2022/09/04 09:33:38;;;;;;;3.80;1.88;;;21.70;58.30;;;;;;4920662;29;20047;-71
2022/09/04 09:36:19;;;;;;;2.70;2.13;;;21.80;58.50;;;;;;4917572;29;20028;-71
2022/09/04 09:38:44;;;;;;;5.53;2.25;;;22.10;57.40;;;;;;4919982;29;20027;-65
2022/09/04 09:41:50;;;;;;;2.78;1.60;;;22.20;57.30;;;;;;4924261;29;20099;-70
2022/09/04 09:44:15;;;;;;;2.75;2.00;;;22.20;56.70;;;;;;4923928;29;20031;-70
2022/09/04 09:47:12;;;;;;;2.35;2.15;;;22.20;57.00;;;;;;4923474;29;20027;-70
2022/09/04 09:50:15;;;;;;;3.25;2.08;;;22.40;56.70;;;;;;4922350;29;20035;-71
2022/09/04 09:53:19;;;;;;;3.55;1.95;;;22.80;56.80;;;;;;4919861;29;20039;-70
2022/09/04 09:56:18;;;;;;;2.78;2.03;;;23.10;53.80;;;;;;4919400;29;20031;-71
2022/09/04 09:59:03;;;;;;;2.55;1.98;;;23.10;53.70;;;;;;4917120;29;20107;-71
2022/09/04 10:01:29;;;;;;;2.95;1.80;;;23.00;53.90;;;;;;4918381;29;20119;-70
2022/09/04 10:04:32;;;;;;;3.38;2.00;;;23.00;55.00;;;;;;4924497;29;20074;-70
2022/09/04 10:07:39;;;;;;;3.42;2.10;;;23.10;53.90;;;;;;4920246;29;20031;-70
2022/09/04 10:10:57;;;;;;;4.07;2.15;;;23.20;54.20;;;;;;4918507;29;20445;-70
2022/09/04 10:13:56;;;;;;;3.08;1.70;;;23.30;54.90;;;;;;4922783;29;20606;-71
2022/09/04 10:16:28;;;;;;;2.17;1.70;;;23.40;53.70;;;;;;4918438;29;20028;-70
2022/09/04 10:18:57;;;;;;;3.33;2.00;;;23.40;54.60;;;;;;4921757;29;20032;-70
2022/09/04 10:21:38;;;;;;;2.40;1.77;;;23.40;54.00;;;;;;4923742;29;20102;-71
2022/09/04 10:24:52;;;;;;;5.43;2.17;;;23.30;54.50;;;;;;4920126;29;20040;-71
2022/09/04 10:28:00;;;;;;;4.15;2.17;;;23.50;55.10;;;;;;4919991;29;20051;-71
2022/09/04 10:30:47;;;;;;;4.90;2.13;;;23.60;53.10;;;;;;4920615;29;20495;-69
2022/09/04 10:33:29;;;;;;;3.72;2.15;;;23.70;53.60;;;;;;4917796;29;20031;-71
2022/09/04 10:36:26;;;;;;;3.40;1.98;;;23.80;52.50;;;;;;4918032;29;20050;-70
2022/09/04 10:42:54;;;;;;;2.47;1.60;;;23.70;51.60;;;;;;4921031;29;20810;-70
2022/09/04 10:45:34;;;;;;;1.88;1.38;;;23.60;51.80;;;;;;4917918;29;20047;-70
2022/09/04 10:48:11;;;;;;;1.52;1.20;;;23.60;53.10;;;;;;4918063;29;20095;-71
2022/09/04 10:50:40;;;;;;;2.05;1.50;;;23.80;50.90;;;;;;4918595;29;20557;-70
2022/09/04 10:53:37;;;;;;;2.03;1.70;;;23.90;51.20;;;;;;4914885;29;20099;-70
2022/09/04 10:56:11;;;;;;;2.53;1.50;;;24.10;51.30;;;;;;4916898;29;20043;-70
2022/09/04 10:58:49;;;;;;;2.35;1.23;;;24.10;50.50;;;;;;4923513;29;20444;-70
2022/09/04 11:01:28;;;;;;;2.38;1.00;;;24.10;48.00;;;;;;4920579;29;20543;-70
2022/09/04 11:04:32;;;;;;;2.75;1.58;;;24.10;51.40;;;;;;4920754;29;20114;-70
2022/09/04 11:07:36;;;;;;;1.40;1.27;;;24.10;49.80;;;;;;4918655;29;20028;-69
2022/09/04 11:10:03;;;;;;;1.42;1.33;;;24.10;50.00;;;;;;4919228;29;20405;-69
2022/09/04 11:12:37;;;;;;;3.15;1.45;;;24.20;50.50;;;;;;4918556;29;20079;-70
2022/09/04 11:15:22;;;;;;;2.35;1.65;;;24.30;50.30;;;;;;4918366;29;20591;-71
2022/09/04 11:18:02;;;;;;;1.90;1.30;;;24.30;50.10;;;;;;4924367;29;20495;-71
2022/09/04 11:21:06;;;;;;;1.58;1.15;;;24.30;50.70;;;;;;4921260;29;20023;-70
2022/09/04 11:23:44;;;;;;;2.03;1.27;;;24.30;48.80;;;;;;4922241;29;20070;-70
2022/09/04 11:26:28;;;;;;;1.20;1.08;;;24.20;47.40;;;;;;4918150;29;20424;-70
2022/09/04 11:29:29;;;;;;;1.48;1.17;;;24.10;48.60;;;;;;4917462;29;20039;-69
2022/09/04 11:32:14;;;;;;;4.18;1.27;;;24.20;49.30;;;;;;4918450;29;20085;-70
2022/09/04 11:35:12;;;;;;;1.60;1.13;;;24.20;47.60;;;;;;4922612;29;20019;-71
2022/09/04 11:37:56;;;;;;;2.28;1.20;;;24.30;47.60;;;;;;4922010;29;20031;-70
2022/09/04 11:40:45;;;;;;;2.10;1.50;;;24.40;49.10;;;;;;4921625;29;20042;-71
2022/09/04 11:43:32;;;;;;;1.95;1.52;;;24.50;46.30;;;;;;4922794;29;20539;-71
2022/09/04 11:45:58;;;;;;;3.50;1.10;;;24.50;47.90;;;;;;4921929;29;20095;-71
2022/09/04 11:48:36;;;;;;;1.25;1.13;;;24.60;47.40;;;;;;4922321;29;20035;-70
2022/09/04 11:51:15;;;;;;;6.75;1.25;;;24.80;48.00;;;;;;4917801;29;20511;-72
2022/09/04 11:54:28;;;;;;;6.05;1.33;;;24.90;47.40;;;;;;4928766;29;20047;-70
2022/09/04 11:57:20;;;;;;;1.35;1.20;;;24.90;46.50;;;;;;4921684;29;20044;-70
2022/09/04 12:00:17;;;;;;;2.33;1.40;;;24.80;47.70;;;;;;4923277;29;20030;-70
2022/09/04 12:03:13;;;;;;;1.90;1.20;;;24.80;46.80;;;;;;4920824;29;20048;-70
2022/09/04 12:06:13;;;;;;;4.22;1.13;;;24.90;47.30;;;;;;4921639;29;20072;-69
2022/09/04 12:08:45;;;;;;;1.60;1.30;;;25.00;46.60;;;;;;4921547;29;20090;-70
2022/09/04 12:11:59;;;;;;;1.40;1.30;;;24.90;45.90;;;;;;4922216;29;20132;-70
2022/09/04 12:15:11;;;;;;;1.60;1.30;;;24.90;47.40;;;;;;4930569;28;20184;-70
2022/09/04 12:18:30;;;;;;;1.50;1.20;;;25.00;47.30;;;;;;4920330;29;20027;-70
2022/09/04 12:21:36;;;;;;;1.50;1.10;;;25.10;46.50;;;;;;4912993;29;20055;-71
2022/09/04 12:24:20;;;;;;;1.70;1.23;;;25.10;46.70;;;;;;4923526;29;20027;-71
2022/09/04 12:27:18;;;;;;;1.67;1.25;;;25.10;46.00;;;;;;4931282;29;20109;-71
2022/09/04 12:29:56;;;;;;;1.45;1.27;;;25.20;46.70;;;;;;4926998;29;20024;-72
2022/09/04 12:32:41;;;;;;;2.00;1.42;;;25.20;45.90;;;;;;4931641;29;20035;-71
2022/09/04 12:35:16;;;;;;;1.55;1.27;;;25.10;46.00;;;;;;4928056;29;20047;-70
2022/09/04 12:38:10;;;;;;;1.85;1.40;;;25.10;46.50;;;;;;4928073;29;20031;-71
2022/09/04 12:40:45;;;;;;;2.55;1.42;;;25.10;47.10;;;;;;4926815;29;20058;-71
2022/09/04 12:43:29;;;;;;;3.13;1.42;;;25.10;45.00;;;;;;4926825;29;20067;-70
2022/09/04 12:46:24;;;;;;;3.17;1.30;;;25.10;46.40;;;;;;4927029;29;20046;-70
2022/09/04 12:49:02;;;;;;;2.08;1.35;;;25.10;45.60;;;;;;4932382;29;20066;-70
2022/09/04 12:51:48;;;;;;;1.30;1.20;;;25.20;45.60;;;;;;4926462;29;20131;-70
2022/09/04 12:54:13;;;;;;;1.42;1.20;;;25.30;45.40;;;;;;4926380;29;20084;-70
2022/09/04 12:57:11;;;;;;;1.50;1.25;;;25.30;45.80;;;;;;4923690;29;20480;-71
2022/09/04 13:00:08;;;;;;;3.17;1.30;;;25.30;45.70;;;;;;4922677;29;20055;-70
2022/09/04 13:03:08;;;;;;;1.48;1.10;;;25.00;46.10;;;;;;4924171;29;20031;-70
2022/09/04 13:05:52;;;;;;;3.13;1.42;;;24.90;46.40;;;;;;4922933;29;20047;-70
2022/09/04 13:08:41;;;;;;;4.03;1.35;;;25.00;46.40;;;;;;4921877;29;20548;-70
2022/09/04 13:11:30;;;;;;;4.93;1.48;;;25.10;47.50;;;;;;4923236;29;21039;-71
2022/09/04 13:14:09;;;;;;;3.65;1.83;;;25.30;46.10;;;;;;4922028;29;20036;-70
2022/09/04 13:16:53;;;;;;;2.83;1.50;;;25.10;45.70;;;;;;4922573;29;20031;-70
2022/09/04 13:19:27;;;;;;;1.65;1.55;;;25.00;46.20;;;;;;4925402;29;20038;-71
2022/09/04 13:22:10;;;;;;;2.10;1.65;;;25.10;47.40;;;;;;4929496;28;20436;-70
2022/09/04 13:25:14;;;;;;;5.65;1.50;;;25.20;46.70;;;;;;4922604;29;20404;-72
2022/09/04 13:28:10;;;;;;;2.00;1.67;;;25.30;46.00;;;;;;4927409;29;20039;-70
2022/09/04 13:31:09;;;;;;;2.95;1.77;;;25.20;45.50;;;;;;4923401;29;20377;-70
2022/09/04 13:34:23;;;;;;;2.05;1.45;;;25.30;46.80;;;;;;4914485;29;20492;-70
2022/09/04 13:37:08;;;;;;;1.85;1.42;;;25.30;45.80;;;;;;4919379;29;20075;-70
2022/09/04 13:39:59;;;;;;;2.08;1.50;;;25.30;45.30;;;;;;4919844;29;20070;-70
2022/09/04 13:42:43;;;;;;;4.57;1.42;;;25.10;45.90;;;;;;4919165;29;20335;-70
2022/09/04 13:45:22;;;;;;;1.80;1.25;;;25.10;45.60;;;;;;4919977;29;20039;-70
2022/09/04 13:48:08;;;;;;;1.73;1.45;;;24.90;45.90;;;;;;4924734;29;20042;-71
2022/09/04 13:50:53;;;;;;;3.20;1.77;;;25.00;45.10;;;;;;4923517;29;20554;-70
2022/09/04 13:53:22;;;;;;;2.00;1.38;;;25.00;45.60;;;;;;4921611;29;20024;-70
2022/09/04 13:55:58;;;;;;;2.17;1.40;;;25.20;46.10;;;;;;4920560;29;20055;-70
2022/09/04 13:58:32;;;;;;;2.03;1.63;;;25.10;45.30;;;;;;4919933;29;20027;-70
2022/09/04 14:01:01;;;;;;;2.08;1.50;;;25.10;46.30;;;;;;4916423;29;20067;-71
2022/09/04 14:03:48;;;;;;;4.05;1.88;;;25.10;45.60;;;;;;4920032;29;20098;-70
2022/09/04 14:06:17;;;;;;;2.35;1.50;;;25.10;45.70;;;;;;4937466;29;20771;-71
2022/09/04 14:08:46;;;;;;;2.42;1.52;;;25.20;45.50;;;;;;4923429;29;20031;-70
2022/09/04 14:11:36;;;;;;;2.63;1.50;;;25.10;45.60;;;;;;4921174;29;20025;-70
2022/09/04 14:14:23;;;;;;;2.50;1.50;;;25.10;46.00;;;;;;4919539;29;20036;-71
2022/09/04 14:16:51;;;;;;;2.67;1.50;;;25.20;46.60;;;;;;4932939;29;20036;-71
2022/09/04 14:19:45;;;;;;;1.98;1.40;;;25.20;45.80;;;;;;4917446;29;20040;-71
2022/09/04 14:22:38;;;;;;;2.08;1.30;;;25.10;46.00;;;;;;4915538;29;20047;-70
2022/09/04 14:25:39;;;;;;;2.47;1.50;;;25.10;45.90;;;;;;4921388;29;20043;-70
2022/09/04 14:28:32;;;;;;;2.78;1.40;;;25.20;46.20;;;;;;4920737;29;20118;-70